Time,TemperatureF,DewpointF,PressureIn,WindDirection,WindDirectionDegrees,WindSpeedMPH,WindSpeedGustMPH,Humidity,HourlyPrecipIn,Conditions,Clouds,dailyrainin,SoftwareType,DateUTC
2013-06-19 00:08:00,61.0,55.0,29.97,NE,44,2.0,-999.0,80,-99.99,,,0.00,weatherlink.com 1.10,2013-06-19 05:08:00,
2013-06-19 00:23:00,60.7,55.0,29.97,NNE,23,0.0,-999.0,81,-99.99,,,0.00,weatherlink.com 1.10,2013-06-19 05:23:00,
2013-06-19 00:38:00,60.5,55.0,29.98,NE,37,0.0,-999.0,82,-99.99,,,0.00,weatherlink.com 1.10,2013-06-19 05:38:00,
2013-06-19 00:53:00,60.4,55.0,29.98,NNE,26,0.0,-999.0,82,-99.99,,,0.00,weatherlink.com 1.10,2013-06-19 05:53:00,
2013-06-19 01:08:00,60.5,55.0,29.98,NE,38,0.0,-999.0,82,-99.99,,,0.00,weatherlink.com 1.10,2013-06-19 06:08:00,
2013-06-19 01:23:00,60.5,55.0,29.98,NNE,23,0.0,-999.0,83,-99.99,,,0.00,weatherlink.com 1.10,2013-06-19 06:23:00,
2013-06-19 01:38:00,60.3,55.0,29.98,NNE,32,2.0,-999.0,83,-99.99,,,0.00,weatherlink.com 1.10,2013-06-19 06:38:00,
2013-06-19 01:54:00,60.3,56.0,29.98,NNE,13,0.0,-999.0,84,-99.99,,,0.00,weatherlink.com 1.10,2013-06-19 06:54:00,
2013-06-19 02:08:00,60.2,55.0,29.98,NE,40,0.0,-999.0,84,-99.99,,,0.00,weatherlink.com 1.10,2013-06-19 07:08:00,
2013-06-19 02:23:00,60.1,56.0,29.98,NE,41,7.0,-999.0,85,-99.99,,,0.00,weatherlink.com 1.10,2013-06-19 07:23:00,
2013-06-19 02:38:00,60.1,56.0,29.98,NNE,19,0.0,-999.0,85,-99.99,,,0.00,weatherlink.com 1.10,2013-06-19 07:38:00,
2013-06-19 02:53:00,60.2,56.0,29.98,NNE,32,0.0,-999.0,86,-99.99,,,0.00,weatherlink.com 1.10,2013-06-19 07:53:00,
2013-06-19 03:09:00,60.3,56.0,29.98,NNE,32,0.0,-999.0,86,-99.99,,,0.00,weatherlink.com 1.10,2013-06-19 08:09:00,
2013-06-19 03:24:00,60.0,56.0,29.98,NNE,32,0.0,-999.0,87,-99.99,,,0.00,weatherlink.com 1.10,2013-06-19 08:24:00,
2013-06-19 03:39:00,59.7,56.0,29.98,NNE,30,0.0,-999.0,87,-99.99,,,0.00,weatherlink.com 1.10,2013-06-19 08:39:00,
2013-06-19 03:54:00,59.5,56.0,29.98,NNE,30,0.0,-999.0,88,-99.99,,,0.00,weatherlink.com 1.10,2013-06-19 08:54:00,
2013-06-19 04:09:00,59.6,56.0,29.99,NNE,21,0.0,-999.0,89,-99.99,,,0.00,weatherlink.com 1.10,2013-06-19 09:09:00,
2013-06-19 04:24:00,59.9,57.0,30.01,NNE,22,0.0,-999.0,89,-99.99,,,0.00,weatherlink.com 1.10,2013-06-19 09:24:00,
2013-06-19 04:40:00,59.3,56.0,30.01,NNE,27,0.0,-999.0,89,-99.99,,,0.00,weatherlink.com 1.10,2013-06-19 09:40:00,
2013-06-19 04:55:00,59.0,56.0,30.01,NNE,27,0.0,-999.0,89,-99.99,,,0.00,weatherlink.com 1.10,2013-06-19 09:55:00,
2013-06-19 05:09:00,59.4,57.0,30.01,NNE,27,0.0,-999.0,91,-99.99,,,0.00,weatherlink.com 1.10,2013-06-19 10:09:00,
2013-06-19 05:24:00,60.2,58.0,30.02,NE,51,0.0,-999.0,91,-99.99,,,0.00,weatherlink.com 1.10,2013-06-19 10:24:00,
2013-06-19 05:39:00,60.9,58.0,30.02,NNE,32,2.0,-999.0,90,-99.99,,,0.00,weatherlink.com 1.10,2013-06-19 10:39:00,
2013-06-19 05:55:00,61.8,58.0,30.02,SE,132,4.0,-999.0,88,-99.99,,,0.00,weatherlink.com 1.10,2013-06-19 10:55:00,
2013-06-19 06:09:00,62.6,58.0,30.02,SE,130,5.0,-999.0,86,-99.99,,,0.00,weatherlink.com 1.10,2013-06-19 11:09:00,
2013-06-19 06:24:00,63.1,59.0,30.02,SE,144,6.0,-999.0,85,-99.99,,,0.00,weatherlink.com 1.10,2013-06-19 11:24:00,
2013-06-19 06:39:00,63.4,59.0,30.03,SE,142,8.0,-999.0,84,-99.99,,,0.00,weatherlink.com 1.10,2013-06-19 11:39:00,
2013-06-19 06:54:00,63.2,59.0,30.04,SE,132,9.0,-999.0,85,-99.99,,,0.00,weatherlink.com 1.10,2013-06-19 11:54:00,
2013-06-19 07:09:00,63.5,59.0,30.04,SE,137,13.0,-999.0,84,-99.99,,,0.00,weatherlink.com 1.10,2013-06-19 12:09:00,
2013-06-19 07:25:00,64.0,59.0,30.05,SE,137,17.0,-999.0,83,-99.99,,,0.00,weatherlink.com 1.10,2013-06-19 12:25:00,
2013-06-19 07:40:00,64.3,59.0,30.05,SE,131,2.0,-999.0,83,-99.99,,,0.00,weatherlink.com 1.10,2013-06-19 12:40:00,
2013-06-19 07:55:00,64.6,59.0,30.06,SE,146,3.0,-999.0,82,-99.99,,,0.00,weatherlink.com 1.10,2013-06-19 12:55:00,
2013-06-19 08:09:00,64.7,59.0,30.06,East,96,0.0,-999.0,81,-99.99,,,0.00,weatherlink.com 1.10,2013-06-19 13:09:00,
2013-06-19 08:24:00,65.0,59.0,30.06,SE,130,0.0,-999.0,81,-99.99,,,0.00,weatherlink.com 1.10,2013-06-19 13:24:00,
2013-06-19 08:39:00,65.7,59.0,30.06,SE,134,0.0,-999.0,80,-99.99,,,0.00,weatherlink.com 1.10,2013-06-19 13:39:00,
2013-06-19 08:54:00,66.3,59.0,30.06,SE,141,4.0,-999.0,78,-99.99,,,0.00,weatherlink.com 1.10,2013-06-19 13:54:00,
2013-06-19 09:10:00,67.2,60.0,30.06,ESE,114,0.0,-999.0,77,-99.99,,,0.00,weatherlink.com 1.10,2013-06-19 14:10:00,
2013-06-19 09:25:00,68.3,60.0,30.07,ESE,117,0.0,-999.0,75,-99.99,,,0.00,weatherlink.com 1.10,2013-06-19 14:25:00,
2013-06-19 09:40:00,69.0,60.0,30.07,SE,127,3.0,-999.0,74,-99.99,,,0.00,weatherlink.com 1.10,2013-06-19 14:40:00,
2013-06-19 09:56:00,69.5,60.0,30.07,SE,135,4.0,-999.0,72,-99.99,,,0.00,weatherlink.com 1.10,2013-06-19 14:56:00,
2013-06-19 10:11:00,69.7,61.0,30.07,SE,138,7.0,-999.0,73,-99.99,,,0.00,weatherlink.com 1.10,2013-06-19 15:11:00,
2013-06-19 10:26:00,70.1,60.0,30.07,ENE,72,0.0,-999.0,71,-99.99,,,0.00,weatherlink.com 1.10,2013-06-19 15:26:00,
2013-06-19 10:41:00,70.8,61.0,30.07,SE,135,4.0,-999.0,70,-99.99,,,0.00,weatherlink.com 1.10,2013-06-19 15:41:00,
2013-06-19 10:56:00,71.8,61.0,30.07,SE,141,8.0,-999.0,69,-99.99,,,0.00,weatherlink.com 1.10,2013-06-19 15:56:00,
2013-06-19 11:10:00,72.8,61.0,30.07,ESE,123,0.0,-999.0,67,-99.99,,,0.00,weatherlink.com 1.10,2013-06-19 16:10:00,
2013-06-19 11:26:00,73.6,62.0,30.07,ESE,111,1.0,-999.0,66,-99.99,,,0.00,weatherlink.com 1.10,2013-06-19 16:26:00,
2013-06-19 11:41:00,74.6,62.0,30.06,NE,55,2.0,-999.0,64,-99.99,,,0.00,weatherlink.com 1.10,2013-06-19 16:41:00,
2013-06-19 11:56:00,74.6,61.0,30.06,SE,125,10.0,-999.0,63,-99.99,,,0.00,weatherlink.com 1.10,2013-06-19 16:56:00,
2013-06-19 12:10:00,74.7,61.0,30.05,SE,126,4.0,-999.0,62,-99.99,,,0.00,weatherlink.com 1.10,2013-06-19 17:10:00,
2013-06-19 12:25:00,74.9,61.0,30.05,SE,134,0.0,-999.0,62,-99.99,,,0.00,weatherlink.com 1.10,2013-06-19 17:25:00,
2013-06-19 12:40:00,75.6,61.0,30.05,ESE,107,1.0,-999.0,61,-99.99,,,0.00,weatherlink.com 1.10,2013-06-19 17:40:00,
2013-06-19 12:55:00,76.4,62.0,30.04,NE,50,0.0,-999.0,61,-99.99,,,0.00,weatherlink.com 1.10,2013-06-19 17:55:00,
2013-06-19 13:11:00,76.7,62.0,30.04,SE,136,1.0,-999.0,60,-99.99,,,0.00,weatherlink.com 1.10,2013-06-19 18:11:00,
2013-06-19 13:26:00,77.3,61.0,30.03,SE,132,2.0,-999.0,58,-99.99,,,0.00,weatherlink.com 1.10,2013-06-19 18:26:00,
2013-06-19 13:41:00,77.9,62.0,30.02,SE,134,0.0,-999.0,58,-99.99,,,0.00,weatherlink.com 1.10,2013-06-19 18:41:00,
2013-06-19 13:56:00,77.3,62.0,30.03,East,92,0.0,-999.0,59,-99.99,,,0.00,weatherlink.com 1.10,2013-06-19 18:56:00,
2013-06-19 14:11:00,77.5,61.0,30.02,ENE,74,0.0,-999.0,58,-99.99,,,0.00,weatherlink.com 1.10,2013-06-19 19:11:00,
2013-06-19 14:26:00,78.4,62.0,30.02,East,98,1.0,-999.0,57,-99.99,,,0.00,weatherlink.com 1.10,2013-06-19 19:26:00,
2013-06-19 14:41:00,78.7,61.0,30.03,SSE,163,3.0,-999.0,55,-99.99,,,0.00,weatherlink.com 1.10,2013-06-19 19:41:00,
2013-06-19 14:56:00,79.6,62.0,30.02,SSE,152,0.0,-999.0,56,-99.99,,,0.00,weatherlink.com 1.10,2013-06-19 19:56:00,
2013-06-19 15:11:00,80.0,62.0,30.01,SSE,165,2.0,-999.0,54,-99.99,,,0.00,weatherlink.com 1.10,2013-06-19 20:11:00,
2013-06-19 15:26:00,79.8,61.0,30.01,SE,138,0.0,-999.0,53,-99.99,,,0.00,weatherlink.com 1.10,2013-06-19 20:26:00,
2013-06-19 15:41:00,80.7,61.0,30.00,SE,146,0.0,-999.0,52,-99.99,,,0.00,weatherlink.com 1.10,2013-06-19 20:41:00,
2013-06-19 15:56:00,80.2,62.0,30.01,ENE,65,0.0,-999.0,54,-99.99,,,0.00,weatherlink.com 1.10,2013-06-19 20:56:00,
2013-06-19 16:12:00,79.4,62.0,30.01,NNE,32,0.0,-999.0,55,-99.99,,,0.00,weatherlink.com 1.10,2013-06-19 21:12:00,
2013-06-19 16:27:00,79.2,61.0,30.00,NE,36,0.0,-999.0,53,-99.99,,,0.00,weatherlink.com 1.10,2013-06-19 21:27:00,
2013-06-19 16:42:00,79.4,62.0,30.00,NE,48,0.0,-999.0,56,-99.99,,,0.00,weatherlink.com 1.10,2013-06-19 21:42:00,
2013-06-19 16:57:00,79.6,61.0,30.00,East,89,0.0,-999.0,54,-99.99,,,0.00,weatherlink.com 1.10,2013-06-19 21:57:00,
2013-06-19 17:11:00,79.6,61.0,30.00,East,94,0.0,-999.0,53,-99.99,,,0.00,weatherlink.com 1.10,2013-06-19 22:11:00,
2013-06-19 17:26:00,80.0,62.0,30.00,NNE,13,0.0,-999.0,55,-99.99,,,0.00,weatherlink.com 1.10,2013-06-19 22:26:00,
2013-06-19 17:41:00,79.5,61.0,30.00,NE,45,0.0,-999.0,54,-99.99,,,0.00,weatherlink.com 1.10,2013-06-19 22:41:00,
2013-06-19 17:57:00,79.8,62.0,30.00,ESE,113,3.0,-999.0,54,-99.99,,,0.00,weatherlink.com 1.10,2013-06-19 22:57:00,
2013-06-19 18:11:00,79.2,61.0,30.00,NNE,32,0.0,-999.0,54,-99.99,,,0.00,weatherlink.com 1.10,2013-06-19 23:11:00,
2013-06-19 18:26:00,79.0,61.0,30.01,SE,141,0.0,-999.0,54,-99.99,,,0.00,weatherlink.com 1.10,2013-06-19 23:26:00,
2013-06-19 18:41:00,78.7,61.0,30.01,SE,127,0.0,-999.0,54,-99.99,,,0.00,weatherlink.com 1.10,2013-06-19 23:41:00,
2013-06-19 18:56:00,78.7,61.0,30.01,SE,127,0.0,-999.0,54,-99.99,,,0.00,weatherlink.com 1.10,2013-06-19 23:56:00,
2013-06-19 19:11:00,78.7,61.0,30.01,ESE,122,0.0,-999.0,54,-99.99,,,0.00,weatherlink.com 1.10,2013-06-20 00:11:00,
2013-06-19 19:26:00,78.7,61.0,30.01,ESE,113,0.0,-999.0,55,-99.99,,,0.00,weatherlink.com 1.10,2013-06-20 00:26:00,
2013-06-19 19:41:00,78.1,61.0,30.01,SE,138,0.0,-999.0,55,-99.99,,,0.00,weatherlink.com 1.10,2013-06-20 00:41:00,
2013-06-19 19:56:00,77.5,61.0,30.01,ESE,123,0.0,-999.0,57,-99.99,,,0.00,weatherlink.com 1.10,2013-06-20 00:56:00,
2013-06-19 20:12:00,76.7,61.0,30.01,ESE,120,0.0,-999.0,59,-99.99,,,0.00,weatherlink.com 1.10,2013-06-20 01:12:00,
2013-06-19 20:27:00,76.1,61.0,30.01,ESE,119,0.0,-999.0,60,-99.99,,,0.00,weatherlink.com 1.10,2013-06-20 01:27:00,
2013-06-19 20:42:00,75.6,61.0,30.01,SE,126,1.0,-999.0,61,-99.99,,,0.00,weatherlink.com 1.10,2013-06-20 01:42:00,
2013-06-19 20:57:00,75.1,61.0,30.02,ESE,117,0.0,-999.0,62,-99.99,,,0.00,weatherlink.com 1.10,2013-06-20 01:57:00,
2013-06-19 21:11:00,74.6,61.0,30.02,South,189,0.0,-999.0,63,-99.99,,,0.00,weatherlink.com 1.10,2013-06-20 02:11:00,
2013-06-19 21:26:00,74.2,61.0,30.03,East,94,0.0,-999.0,63,-99.99,,,0.00,weatherlink.com 1.10,2013-06-20 02:26:00,
2013-06-19 21:41:00,73.8,61.0,30.03,ESE,121,3.0,-999.0,64,-99.99,,,0.00,weatherlink.com 1.10,2013-06-20 02:41:00,
2013-06-19 21:56:00,73.3,60.0,30.04,East,80,0.0,-999.0,64,-99.99,,,0.00,weatherlink.com 1.10,2013-06-20 02:56:00,
2013-06-19 22:12:00,72.8,60.0,30.04,ESE,102,0.0,-999.0,65,-99.99,,,0.00,weatherlink.com 1.10,2013-06-20 03:12:00,
2013-06-19 22:27:00,71.9,60.0,30.04,SE,129,1.0,-999.0,67,-99.99,,,0.00,weatherlink.com 1.10,2013-06-20 03:27:00,
2013-06-19 22:42:00,71.6,60.0,30.04,SE,127,0.0,-999.0,67,-99.99,,,0.00,weatherlink.com 1.10,2013-06-20 03:42:00,
2013-06-19 22:57:00,71.3,60.0,30.05,SE,128,0.0,-999.0,68,-99.99,,,0.00,weatherlink.com 1.10,2013-06-20 03:57:00,
2013-06-19 23:12:00,70.8,60.0,30.05,ESE,119,3.0,-999.0,69,-99.99,,,0.00,weatherlink.com 1.10,2013-06-20 04:12:00,
2013-06-19 23:27:00,70.5,60.0,30.05,ESE,118,0.0,-999.0,70,-99.99,,,0.00,weatherlink.com 1.10,2013-06-20 04:27:00,
2013-06-19 23:42:00,70.1,60.0,30.05,SSE,153,0.0,-999.0,70,-99.99,,,0.00,weatherlink.com 1.10,2013-06-20 04:42:00,